createdAt,value
2023-05-23T00:02:13.790Z,7.30
2023-05-23T00:04:43.157Z,9.05
2023-05-23T00:07:11.736Z,7.35
2023-05-23T00:09:39.831Z,10.45
2023-05-23T00:12:08.237Z,8.13
2023-05-23T00:14:36.353Z,10.82
2023-05-23T00:17:05.666Z,9.68
2023-05-23T00:19:36.753Z,7.57
2023-05-23T00:22:05.800Z,7.32
2023-05-23T00:24:33.788Z,9.13
2023-05-23T00:27:02.409Z,10.18
2023-05-23T00:29:30.642Z,12.75
2023-05-23T00:31:58.894Z,8.57
2023-05-23T00:34:28.189Z,8.82
2023-05-23T00:36:56.037Z,8.75
2023-05-23T00:39:23.971Z,8.75
2023-05-23T00:41:53.295Z,14.15
2023-05-23T00:44:22.571Z,9.20
2023-05-23T00:46:54.324Z,9.20
2023-05-23T00:49:23.236Z,7.57
2023-05-23T00:51:52.340Z,8.98
2023-05-23T00:54:25.125Z,12.43
2023-05-23T00:56:53.691Z,8.65
2023-05-23T00:59:23.154Z,9.57
2023-05-23T01:01:53.222Z,8.30
2023-05-23T01:04:21.789Z,8.10
2023-05-23T01:06:49.911Z,10.98
2023-05-23T01:09:18.972Z,8.18
2023-05-23T01:11:58.815Z,9.20
2023-05-23T01:14:39.270Z,7.97
2023-05-23T01:17:25.175Z,9.02
2023-05-23T01:20:01.512Z,8.25
2023-05-23T01:23:01.733Z,7.70
2023-05-23T01:25:58.600Z,16.27
2023-05-23T01:28:34.432Z,7.18
2023-05-23T01:31:04.416Z,7.85
2023-05-23T01:33:33.689Z,8.90
2023-05-23T01:36:06.169Z,8.35
2023-05-23T01:38:34.391Z,8.30
2023-05-23T01:41:02.262Z,12.93
2023-05-23T01:43:30.462Z,11.77
2023-05-23T01:45:59.116Z,10.77
2023-05-23T01:48:28.320Z,9.68
2023-05-23T01:50:57.456Z,11.60
2023-05-23T01:53:26.694Z,8.77
2023-05-23T01:55:54.832Z,9.48
2023-05-23T01:58:23.159Z,10.85
2023-05-23T02:00:51.255Z,10.65
2023-05-23T02:03:19.650Z,10.70
2023-05-23T02:05:47.996Z,9.95
2023-05-23T02:08:16.166Z,10.85
2023-05-23T02:10:44.196Z,9.70
2023-05-23T02:13:12.183Z,11.82
2023-05-23T02:15:40.529Z,9.57
2023-05-23T02:18:09.941Z,10.30
2023-05-23T02:23:11.350Z,11.80
2023-05-23T02:25:39.893Z,11.73
2023-05-23T02:28:08.175Z,11.80
2023-05-23T02:30:36.278Z,10.45
2023-05-23T02:33:08.581Z,11.18
2023-05-23T02:35:36.963Z,9.68
2023-05-23T02:38:05.092Z,9.25
2023-05-23T02:40:33.137Z,10.57
2023-05-23T02:43:02.625Z,9.43
2023-05-23T02:45:34.864Z,13.15
2023-05-23T02:48:02.990Z,14.80
2023-05-23T02:50:31.739Z,16.42
2023-05-23T02:52:59.792Z,16.75
2023-05-23T02:55:28.138Z,21.10
2023-05-23T02:57:57.083Z,21.30
2023-05-23T03:00:26.550Z,27.95
2023-05-23T03:02:57.675Z,32.15
2023-05-23T03:05:25.996Z,40.08
2023-05-23T03:07:54.999Z,40.75
2023-05-23T03:10:23.452Z,38.30
2023-05-23T03:12:51.937Z,43.22
2023-05-23T03:15:20.132Z,54.13
2023-05-23T03:17:49.007Z,47.25
2023-05-23T03:20:17.984Z,59.45
2023-05-23T03:22:46.143Z,51.03
2023-05-23T03:25:15.691Z,50.90
2023-05-23T03:27:43.798Z,41.10
2023-05-23T03:30:12.260Z,39.42
2023-05-23T03:32:40.489Z,38.42
2023-05-23T03:35:09.028Z,25.95
2023-05-23T03:37:37.122Z,25.45
2023-05-23T03:40:05.764Z,23.50
2023-05-23T03:42:33.872Z,18.15
2023-05-23T03:45:02.112Z,18.50
2023-05-23T03:47:30.417Z,17.98
2023-05-23T03:49:59.980Z,20.10
2023-05-23T03:52:29.293Z,16.58
2023-05-23T03:54:57.730Z,17.75
2023-05-23T03:57:25.873Z,13.02
2023-05-23T03:59:54.306Z,15.20
2023-05-23T04:03:15.960Z,14.52
2023-05-23T04:05:44.548Z,11.43
2023-05-23T04:08:13.462Z,12.20
2023-05-23T04:10:41.572Z,11.77
2023-05-23T04:13:09.953Z,16.80
2023-05-23T04:15:40.291Z,13.63
2023-05-23T04:18:12.347Z,10.80
2023-05-23T04:20:40.737Z,14.00
2023-05-23T04:23:08.991Z,12.80
2023-05-23T04:28:22.172Z,12.52
2023-05-23T04:30:50.492Z,14.02
2023-05-23T04:33:22.365Z,12.05
2023-05-23T04:35:51.447Z,12.25
2023-05-23T04:38:22.357Z,11.77
2023-05-23T04:40:52.915Z,12.18
2023-05-23T04:43:42.936Z,10.90
2023-05-23T04:46:26.931Z,15.88
2023-05-23T04:49:34.506Z,15.48
2023-05-23T04:52:03.185Z,15.93
2023-05-23T04:54:33.516Z,13.13
2023-05-23T04:57:05.100Z,10.68
2023-05-23T04:59:34.536Z,11.15
2023-05-23T05:02:04.055Z,10.93
2023-05-23T05:04:32.282Z,11.82
2023-05-23T05:07:00.558Z,12.35
2023-05-23T05:09:29.308Z,11.35
2023-05-23T05:11:58.162Z,11.93
2023-05-23T05:14:27.486Z,12.40
2023-05-23T05:16:57.992Z,10.88
2023-05-23T05:19:33.369Z,12.50
2023-05-23T05:22:01.938Z,10.88
2023-05-23T05:24:33.041Z,10.80
2023-05-23T05:27:01.220Z,12.93
2023-05-23T05:29:29.546Z,15.00
2023-05-23T05:31:58.200Z,14.32
2023-05-23T05:34:27.311Z,15.38
2023-05-23T05:36:57.194Z,13.57
2023-05-23T05:39:26.844Z,10.05
2023-05-23T05:41:56.553Z,12.57
2023-05-23T05:44:25.028Z,8.43
2023-05-23T05:46:53.086Z,10.93
2023-05-23T05:49:21.431Z,14.13
2023-05-23T05:51:49.721Z,14.63
2023-05-23T05:54:19.220Z,11.15
2023-05-23T05:56:48.531Z,9.35
2023-05-23T05:59:17.851Z,7.97
2023-05-23T06:01:45.793Z,7.32
2023-05-23T06:04:15.031Z,7.35
2023-05-23T06:06:43.656Z,6.20
2023-05-23T06:09:11.936Z,9.05
2023-05-23T06:11:41.263Z,6.32
2023-05-23T06:14:09.913Z,6.70
2023-05-23T06:16:42.114Z,7.60
2023-05-23T06:19:10.145Z,7.50
2023-05-23T06:21:40.159Z,9.05
2023-05-23T06:24:10.836Z,7.63
2023-05-23T06:26:39.215Z,6.60
2023-05-23T06:29:12.953Z,7.25
2023-05-23T06:31:41.190Z,6.57
2023-05-23T06:34:09.240Z,6.32
2023-05-23T06:36:37.176Z,5.95
2023-05-23T06:39:05.198Z,6.63
2023-05-23T06:41:34.457Z,7.15
2023-05-23T06:44:02.495Z,5.63
2023-05-23T06:46:33.112Z,6.28
2023-05-23T06:49:13.866Z,7.40
2023-05-23T06:51:44.397Z,7.60
2023-05-23T06:54:12.859Z,6.35
2023-05-23T06:56:41.373Z,6.90
2023-05-23T06:59:09.924Z,7.05
2023-05-23T07:01:38.321Z,5.47
2023-05-23T07:04:06.960Z,4.00
2023-05-23T07:06:37.030Z,7.45
2023-05-23T07:11:35.784Z,4.07
2023-05-23T07:14:03.696Z,3.58
2023-05-23T07:16:37.944Z,4.95
2023-05-23T07:19:08.326Z,5.07
2023-05-23T07:21:43.164Z,4.47
2023-05-23T07:24:12.266Z,4.15
2023-05-23T07:26:40.354Z,3.42
2023-05-23T07:29:08.612Z,4.63
2023-05-23T07:31:37.973Z,6.90
2023-05-23T07:34:06.374Z,3.33
2023-05-23T07:36:45.807Z,3.65
2023-05-23T07:39:15.809Z,3.63
2023-05-23T07:41:43.740Z,4.78
2023-05-23T07:44:12.432Z,3.45
2023-05-23T07:46:40.668Z,4.63
2023-05-23T07:49:08.691Z,4.80
2023-05-23T07:51:39.213Z,2.95
2023-05-23T07:54:08.070Z,3.77
2023-05-23T07:56:38.692Z,5.03
2023-05-23T07:59:09.178Z,3.50
2023-05-23T08:01:37.735Z,4.97
2023-05-23T08:04:08.963Z,5.05
2023-05-23T08:07:03.654Z,5.22
2023-05-23T08:09:43.597Z,4.53
2023-05-23T08:12:15.659Z,7.78
2023-05-23T08:14:51.238Z,6.30
2023-05-23T08:17:25.589Z,5.18
2023-05-23T08:19:54.871Z,6.53
2023-05-23T08:22:24.080Z,7.95
2023-05-23T08:24:52.675Z,7.25
2023-05-23T08:27:21.645Z,5.45
2023-05-23T08:29:55.962Z,5.10
2023-05-23T08:32:27.129Z,5.25
2023-05-23T08:34:56.196Z,6.13
2023-05-23T08:37:24.527Z,4.53
2023-05-23T08:39:53.128Z,3.42
2023-05-23T08:42:43.665Z,2.97
2023-05-23T08:45:14.199Z,3.78
2023-05-23T08:47:46.396Z,4.15
2023-05-23T08:50:21.147Z,3.30
2023-05-23T08:52:56.016Z,4.15
2023-05-23T08:55:29.980Z,4.18
2023-05-23T08:58:01.082Z,3.35
2023-05-23T09:00:42.320Z,3.70
2023-05-23T09:03:12.696Z,4.18
2023-05-23T09:06:04.011Z,4.57
2023-05-23T09:08:32.766Z,4.03
2023-05-23T09:11:03.458Z,7.65
2023-05-23T09:13:35.085Z,5.50
2023-05-23T09:16:07.326Z,4.53
2023-05-23T09:18:46.955Z,4.00
2023-05-23T09:21:17.382Z,8.93
2023-05-23T09:24:15.340Z,6.35
2023-05-23T09:26:44.006Z,6.75
2023-05-23T09:29:12.715Z,5.90
2023-05-23T09:31:43.121Z,6.82
2023-05-23T09:34:11.800Z,7.03
2023-05-23T09:36:44.426Z,6.40
2023-05-23T09:39:13.718Z,6.57
2023-05-23T09:41:41.932Z,8.02
2023-05-23T09:44:11.098Z,6.78
2023-05-23T09:46:39.503Z,5.85
2023-05-23T09:49:18.483Z,7.00
2023-05-23T09:51:59.538Z,6.68
2023-05-23T09:54:28.079Z,6.05
2023-05-23T09:56:57.405Z,6.45
2023-05-23T09:59:30.007Z,5.90
2023-05-23T10:01:58.920Z,9.45
2023-05-23T10:04:33.453Z,5.22
2023-05-23T10:07:28.081Z,5.57
2023-05-23T10:09:59.978Z,5.65
2023-05-23T10:12:40.388Z,5.80
2023-05-23T10:15:10.949Z,6.07
2023-05-23T10:18:02.389Z,5.23
2023-05-23T10:23:01.886Z,5.45
2023-05-23T10:25:30.482Z,4.43
2023-05-23T10:28:03.234Z,8.40
2023-05-23T10:30:32.238Z,5.25
2023-05-23T10:33:00.966Z,6.05
2023-05-23T10:35:39.662Z,8.27
2023-05-23T10:38:45.500Z,7.32
2023-05-23T10:41:26.785Z,9.27
2023-05-23T10:44:29.652Z,6.28
2023-05-23T10:47:01.621Z,6.47
2023-05-23T10:49:40.674Z,4.90
2023-05-23T10:52:09.948Z,7.47
2023-05-23T10:54:43.135Z,7.38
2023-05-23T10:57:12.942Z,7.00
2023-05-23T10:59:41.431Z,7.13
2023-05-23T11:02:17.208Z,7.63
2023-05-23T11:04:46.298Z,8.52
2023-05-23T11:07:33.992Z,6.75
2023-05-23T11:10:15.697Z,8.73
2023-05-23T11:12:45.109Z,7.47
2023-05-23T11:15:20.659Z,5.57
2023-05-23T11:17:57.069Z,9.13
2023-05-23T11:20:30.976Z,8.32
2023-05-23T11:23:03.851Z,8.45
2023-05-23T11:25:51.174Z,8.73
2023-05-23T11:28:19.963Z,7.25
2023-05-23T11:30:51.911Z,8.57
2023-05-23T11:33:21.226Z,6.63
2023-05-23T11:35:51.610Z,11.88
2023-05-23T11:38:19.483Z,7.47
2023-05-23T11:40:48.912Z,9.07
2023-05-23T11:43:18.313Z,8.35
2023-05-23T11:45:49.201Z,4.90
2023-05-23T11:48:18.270Z,7.07
2023-05-23T11:50:56.081Z,6.72
2023-05-23T11:53:26.978Z,5.60
2023-05-23T11:55:58.636Z,5.13
2023-05-23T11:58:38.505Z,5.30
2023-05-23T12:01:08.441Z,8.18
2023-05-23T12:03:47.588Z,4.53
2023-05-23T12:06:24.989Z,3.17
2023-05-23T12:08:53.904Z,5.22
2023-05-23T12:11:24.097Z,4.60
2023-05-23T12:13:54.269Z,5.45
2023-05-23T12:16:22.727Z,4.40
2023-05-23T12:18:50.827Z,7.22
2023-05-23T12:21:18.876Z,5.88
2023-05-23T12:23:47.602Z,5.80
2023-05-23T12:26:18.943Z,4.40
2023-05-23T12:28:47.014Z,4.38
2023-05-23T12:31:18.498Z,5.82
2023-05-23T12:33:50.271Z,5.10
2023-05-23T12:36:27.502Z,3.78
2023-05-23T12:39:04.004Z,5.00
2023-05-23T12:41:34.015Z,5.95
2023-05-23T12:44:07.981Z,6.63
2023-05-23T12:46:36.174Z,10.00
2023-05-23T12:49:04.585Z,6.47
2023-05-23T12:51:33.619Z,4.10
2023-05-23T12:54:03.196Z,6.13
2023-05-23T12:56:32.165Z,3.90
2023-05-23T12:59:02.703Z,4.68
2023-05-23T13:01:32.027Z,7.00
2023-05-23T13:04:00.476Z,9.40
2023-05-23T13:06:29.191Z,13.98
2023-05-23T13:08:58.473Z,11.40
2023-05-23T13:11:30.558Z,5.35
2023-05-23T13:13:59.590Z,6.40
2023-05-23T13:16:28.073Z,7.78
2023-05-23T13:18:56.703Z,7.80
2023-05-23T13:21:25.111Z,9.38
2023-05-23T13:23:53.283Z,7.05
2023-05-23T13:26:22.316Z,10.13
2023-05-23T13:28:50.595Z,6.32
2023-05-23T13:31:18.646Z,5.40
2023-05-23T13:33:46.711Z,6.82
2023-05-23T13:36:14.768Z,5.38
2023-05-23T13:38:42.584Z,4.20
2023-05-23T13:41:10.772Z,7.03
2023-05-23T13:43:38.689Z,9.10
2023-05-23T13:46:06.678Z,8.50
2023-05-23T13:48:35.208Z,5.97
2023-05-23T13:51:04.528Z,9.93
2023-05-23T13:53:33.178Z,8.13
2023-05-23T13:56:01.528Z,8.88
2023-05-23T13:58:31.972Z,7.20
2023-05-23T14:01:01.003Z,6.72
2023-05-23T14:03:29.786Z,10.38
2023-05-23T14:05:58.493Z,5.47
2023-05-23T14:08:27.075Z,5.05
2023-05-23T14:10:54.988Z,8.85
2023-05-23T14:13:27.238Z,5.45
2023-05-23T14:16:00.373Z,4.57
2023-05-23T14:18:29.693Z,9.48
2023-05-23T14:20:58.719Z,6.13
2023-05-23T14:23:26.854Z,9.00
2023-05-23T14:25:56.113Z,3.80
2023-05-23T14:28:25.640Z,5.20
2023-05-23T14:30:54.188Z,7.88
2023-05-23T14:33:23.353Z,12.40
2023-05-23T14:35:51.782Z,8.82
2023-05-23T14:38:20.441Z,7.45
2023-05-23T14:40:49.264Z,3.28
2023-05-23T14:43:17.312Z,4.88
2023-05-23T14:45:45.483Z,10.88
2023-05-23T14:48:14.304Z,5.53
2023-05-23T14:50:43.279Z,9.10
2023-05-23T14:53:11.447Z,5.18
2023-05-23T14:55:39.804Z,8.75
2023-05-23T14:58:07.910Z,5.18
2023-05-23T15:00:36.252Z,5.28
2023-05-23T15:03:05.303Z,14.15
2023-05-23T15:05:33.876Z,5.97
2023-05-23T15:08:02.255Z,8.10
2023-05-23T15:10:30.554Z,5.55
2023-05-23T15:12:59.139Z,5.45
2023-05-23T15:15:34.394Z,7.88
2023-05-23T15:18:06.999Z,8.45
2023-05-23T15:20:35.506Z,4.32
2023-05-23T15:23:05.612Z,7.05
2023-05-23T15:25:47.152Z,8.77
2023-05-23T15:28:17.184Z,7.55
2023-05-23T15:30:45.614Z,6.32
2023-05-23T15:33:13.865Z,5.55
2023-05-23T15:35:43.811Z,6.97
2023-05-23T15:38:14.077Z,9.32
2023-05-23T15:40:43.086Z,9.93
2023-05-23T15:43:11.674Z,6.70
2023-05-23T15:45:40.033Z,4.10
2023-05-23T15:48:08.240Z,5.93
2023-05-23T15:50:36.546Z,4.63
2023-05-23T15:53:05.131Z,5.18
2023-05-23T15:55:39.794Z,7.88
2023-05-23T15:58:10.402Z,8.80
2023-05-23T16:00:38.739Z,4.53
2023-05-23T16:03:07.168Z,5.70
2023-05-23T16:05:35.309Z,4.00
2023-05-23T16:08:03.598Z,8.90
2023-05-23T16:10:31.585Z,10.30
2023-05-23T16:12:59.854Z,8.32
2023-05-23T16:15:30.992Z,7.18
2023-05-23T16:18:00.285Z,8.48
2023-05-23T16:20:29.041Z,5.13
2023-05-23T16:22:57.433Z,6.65
2023-05-23T16:25:25.791Z,7.18
2023-05-23T16:27:53.855Z,5.25
2023-05-23T16:30:22.342Z,4.05
2023-05-23T16:32:51.168Z,5.63
2023-05-23T16:35:19.095Z,5.07
2023-05-23T16:37:47.142Z,16.00
2023-05-23T16:40:15.426Z,4.10
2023-05-23T16:42:45.252Z,9.63
2023-05-23T16:45:13.218Z,4.50
2023-05-23T16:47:42.178Z,10.38
2023-05-23T16:50:10.764Z,4.07
2023-05-23T16:52:40.795Z,6.85
2023-05-23T16:55:09.431Z,10.20
2023-05-23T16:57:37.923Z,3.33
2023-05-23T17:00:06.397Z,5.88
2023-05-23T17:02:34.764Z,4.60
2023-05-23T17:05:03.790Z,5.90
2023-05-23T17:07:33.281Z,3.97
2023-05-23T17:10:01.550Z,6.57
2023-05-23T17:12:29.834Z,7.80
2023-05-23T17:14:58.124Z,6.70
2023-05-23T17:17:26.268Z,5.32
2023-05-23T17:19:55.539Z,2.72
2023-05-23T17:22:23.832Z,10.70
2023-05-23T17:24:51.948Z,7.20
2023-05-23T17:27:19.922Z,5.05
2023-05-23T17:29:48.139Z,7.40
2023-05-23T17:32:15.949Z,12.50
2023-05-23T17:34:44.389Z,6.63
2023-05-23T17:37:12.773Z,6.80
2023-05-23T17:39:41.832Z,6.22
2023-05-23T17:42:10.255Z,7.57
2023-05-23T17:44:38.701Z,8.05
2023-05-23T17:47:09.110Z,4.05
2023-05-23T17:49:39.164Z,10.60
2023-05-23T17:52:10.610Z,9.68
2023-05-23T17:54:39.058Z,4.78
2023-05-23T17:57:08.496Z,10.43
2023-05-23T17:59:37.301Z,4.65
2023-05-23T18:02:06.198Z,5.65
2023-05-23T18:04:34.386Z,6.97
2023-05-23T18:07:02.677Z,7.70
2023-05-23T18:09:30.803Z,6.30
2023-05-23T18:11:59.933Z,9.75
2023-05-23T18:14:28.005Z,7.80
2023-05-23T18:16:56.272Z,5.50
2023-05-23T18:19:24.738Z,5.30
2023-05-23T18:21:52.787Z,3.65
2023-05-23T18:24:20.919Z,4.60
2023-05-23T18:26:49.485Z,2.33
2023-05-23T18:29:17.747Z,5.93
2023-05-23T18:31:46.982Z,5.10
2023-05-23T18:34:15.328Z,3.17
2023-05-23T18:36:43.585Z,8.55
2023-05-23T18:39:11.923Z,7.47
2023-05-23T18:41:40.108Z,5.72
2023-05-23T18:44:08.928Z,3.60
2023-05-23T18:46:37.540Z,6.47
2023-05-23T18:49:06.309Z,6.68
2023-05-23T18:51:35.618Z,6.13
2023-05-23T18:54:04.450Z,4.47
2023-05-23T18:56:32.897Z,10.63
2023-05-23T18:59:01.258Z,1.92
2023-05-23T19:01:29.792Z,5.60
2023-05-23T19:03:58.421Z,4.47
2023-05-23T19:06:27.972Z,6.43
2023-05-23T19:08:56.264Z,5.68
2023-05-23T19:11:24.805Z,6.05
2023-05-23T19:13:52.833Z,7.68
2023-05-23T19:16:21.634Z,4.57
2023-05-23T19:18:49.834Z,3.80
2023-05-23T19:21:18.030Z,5.47
2023-05-23T19:23:46.211Z,8.43
2023-05-23T19:26:14.585Z,3.88
2023-05-23T19:28:42.667Z,8.60
2023-05-23T19:31:12.642Z,5.28
2023-05-23T19:33:41.393Z,3.28
2023-05-23T19:36:09.785Z,4.45
2023-05-23T19:38:38.074Z,7.63
2023-05-23T19:41:07.068Z,4.15
2023-05-23T19:43:35.292Z,3.97
2023-05-23T19:46:03.924Z,3.42
2023-05-23T19:48:32.876Z,4.88
2023-05-23T19:51:01.216Z,5.90
2023-05-23T19:53:29.314Z,4.55
2023-05-23T19:55:58.049Z,8.10
2023-05-23T19:58:26.178Z,3.72
2023-05-23T20:00:54.777Z,3.70
2023-05-23T20:03:22.840Z,4.47
2023-05-23T20:05:50.786Z,3.25
2023-05-23T20:08:18.745Z,2.55
2023-05-23T20:10:47.392Z,3.55
2023-05-23T20:13:15.583Z,4.63
2023-05-23T20:15:43.741Z,7.60
2023-05-23T20:18:12.099Z,4.80
2023-05-23T20:20:40.414Z,4.75
2023-05-23T20:23:09.212Z,5.22
2023-05-23T20:25:37.376Z,3.45
2023-05-23T20:28:06.321Z,8.18
2023-05-23T20:30:34.726Z,6.90
2023-05-23T20:33:05.760Z,4.55
2023-05-23T20:35:33.834Z,6.13
2023-05-23T20:38:02.877Z,2.90
2023-05-23T20:40:33.800Z,6.80
2023-05-23T20:43:06.011Z,4.25
2023-05-23T20:45:34.918Z,6.10
2023-05-23T20:48:03.348Z,2.00
2023-05-23T20:50:32.713Z,7.25
2023-05-23T20:53:02.547Z,3.65
2023-05-23T20:55:30.831Z,5.90
2023-05-23T20:57:59.401Z,3.90
2023-05-23T21:00:28.065Z,5.07
2023-05-23T21:02:56.408Z,6.57
2023-05-23T21:05:24.706Z,6.80
2023-05-23T21:07:52.594Z,4.88
2023-05-23T21:10:20.845Z,3.72
2023-05-23T21:12:50.980Z,3.10
2023-05-23T21:15:19.313Z,7.65
2023-05-23T21:17:47.573Z,4.72
2023-05-23T21:20:16.410Z,5.50
2023-05-23T21:22:44.276Z,5.50
2023-05-23T21:25:12.419Z,6.00
2023-05-23T21:27:40.857Z,7.53
2023-05-23T21:30:09.639Z,3.47
2023-05-23T21:32:38.253Z,9.38
2023-05-23T21:35:06.780Z,5.90
2023-05-23T21:37:35.107Z,7.35
2023-05-23T21:40:03.348Z,8.63
2023-05-23T21:42:31.316Z,9.35
2023-05-23T21:44:59.594Z,4.90
2023-05-23T21:47:28.113Z,5.85
2023-05-23T21:49:56.334Z,13.38
2023-05-23T21:52:24.390Z,5.63
2023-05-23T21:54:52.310Z,5.90
2023-05-23T21:57:20.333Z,4.50
2023-05-23T21:59:48.230Z,3.47
2023-05-23T22:02:16.251Z,2.88
2023-05-23T22:04:46.484Z,6.10
2023-05-23T22:07:15.274Z,4.03
2023-05-23T22:09:43.213Z,4.18
2023-05-23T22:12:12.286Z,5.28
2023-05-23T22:14:40.514Z,9.07
2023-05-23T22:17:09.145Z,8.93
2023-05-23T22:19:37.808Z,5.68
2023-05-23T22:22:08.725Z,4.78
2023-05-23T22:24:37.224Z,5.93
2023-05-23T22:27:08.400Z,6.80
2023-05-23T22:29:37.143Z,9.20
2023-05-23T22:32:05.927Z,6.13
2023-05-23T22:34:34.235Z,4.55
2023-05-23T22:37:02.694Z,10.18
2023-05-23T22:39:31.462Z,5.57
2023-05-23T22:41:59.799Z,7.80
2023-05-23T22:44:28.032Z,4.55
2023-05-23T22:46:58.992Z,5.68
2023-05-23T22:49:30.670Z,2.83
2023-05-23T22:51:59.560Z,4.57
2023-05-23T22:54:28.070Z,6.45
2023-05-23T22:56:56.343Z,5.72
2023-05-23T22:59:24.376Z,4.15
2023-05-23T23:01:52.434Z,4.57
2023-05-23T23:04:23.843Z,6.75
2023-05-23T23:06:54.091Z,3.90
2023-05-23T23:09:22.262Z,11.88
2023-05-23T23:11:50.295Z,6.38
2023-05-23T23:14:18.283Z,4.57
2023-05-23T23:16:50.086Z,9.15
2023-05-23T23:19:18.423Z,7.53
2023-05-23T23:21:47.156Z,11.48
2023-05-23T23:24:15.387Z,3.55
2023-05-23T23:26:43.280Z,4.78
2023-05-23T23:29:11.465Z,4.68
2023-05-23T23:31:39.706Z,9.32
2023-05-23T23:34:08.131Z,8.85
2023-05-23T23:36:39.961Z,9.55
2023-05-23T23:41:37.138Z,6.47
2023-05-23T23:44:05.823Z,6.10
2023-05-23T23:46:35.390Z,9.07
2023-05-23T23:49:03.483Z,6.47
2023-05-23T23:51:33.526Z,4.88
2023-05-23T23:54:02.522Z,6.20
2023-05-23T23:56:31.652Z,5.65
2023-05-23T23:58:59.702Z,4.88
